Trabzon — 9HA2783 — position and weather

sailwx.info

Track history (hours):
 
Tides and Currents Weather Stations Pressure Air Temp Water Temp Dewpoint Dewpoint Depression Visibility Wind Speed Wind Dir Waves Ship Positions

Trabzon

Last reported at 2015-May-24 10:32 UTC. Time now 2015-May-30 14:38 UTC.
Position N 49°53' W 003°16'.

Length 229 m; draft 7.4 m.

Type: Cargo ship. MMSI: 215679000.

Date/timePositionNaut miles runAvg speedWind from/ knotsBaromVisibWave heightAir tempDewpointWater temp
2015-May-24 10:32N 49°53' W 003°16'1411.0
2015-May-24 09:15N 49°58' W 002°56'2212.3
2015-May-24 07:29N 50°05' W 002°24'1314.1
2015-May-24 06:34N 50°08' W 002°04'3714.6
2015-May-24 04:04N 50°18' W 001°09'713.6
2015-May-24 03:33N 50°20' W 000°59'1212.3
2015-May-24 02:33N 50°23' W 000°40'1211.5
2015-May-24 01:33N 50°26' W 000°23'1111.2
2015-May-24 00:33N 50°30' W 000°06'1111.1
2015-May-23 23:32N 50°33' E 000°11'1111.6
2015-May-23 22:33N 50°36' E 000°28'1312.7
2015-May-23 21:33N 50°42' E 000°46'1413.8
2015-May-23 20:33N 50°51' E 001°03'1413.5
2015-May-23 19:33N 51°00' E 001°18'1212.4
2015-May-23 18:33N 51°08' E 001°34'1111.1
2015-May-23 17:33N 51°15' E 001°47'1111.1
2015-May-23 16:34N 51°25' E 001°57'1211.6
2015-May-23 15:33N 51°34' E 002°07'2713.0
2015-May-23 13:27N 51°54' E 002°37'1214.0
2015-May-23 12:33N 52°04' E 002°50'1614.1
2015-May-23 11:23N 52°17' E 003°07'2812.9
2015-May-23 09:12N 52°30' E 003°48'812.4
2015-May-23 08:33N 52°31' E 004°01'1212.2
2015-May-23 07:33N 52°30' E 004°21'9 8.9
2015-May-23 06:34N 52°28' E 004°35'0 0.1
2015-May-23 05:31N 52°28' E 004°35'0 0.0
2015-May-23 04:33N 52°28' E 004°35'0 0.0
2015-May-23 03:33N 52°28' E 004°35'0 0.0
2015-May-23 02:30N 52°28' E 004°35'0 0.0
2015-May-23 01:33N 52°28' E 004°35'0 0.0
2015-May-23 00:33N 52°28' E 004°35'0 0.0
2015-May-22 23:33N 52°28' E 004°35'0 0.0
2015-May-22 22:33N 52°28' E 004°35'0 0.0
2015-May-22 21:33N 52°28' E 004°35'0 0.0
2015-May-22 20:33N 52°28' E 004°35'0 0.0
2015-May-22 19:33N 52°28' E 004°35'0 0.0
2015-May-22 18:33N 52°28' E 004°35'0 0.0
2015-May-22 17:27N 52°28' E 004°35'0 0.0
2015-May-22 16:33N 52°28' E 004°35'0 0.0
2015-May-22 15:30N 52°28' E 004°35'0 0.0
2015-May-22 14:30N 52°28' E 004°35'0 0.0
2015-May-22 13:33N 52°28' E 004°35'0 0.0
2015-May-22 12:30N 52°28' E 004°35'0 0.0
2015-May-22 11:33N 52°28' E 004°35'0 0.0
2015-May-22 10:30N 52°28' E 004°35'0 0.0
2015-May-22 09:30N 52°28' E 004°35'0 0.0
2015-May-22 08:33N 52°28' E 004°35'0 0.0
2015-May-22 07:33N 52°28' E 004°35'0 0.0
2015-May-22 06:33N 52°28' E 004°35'0 0.0
2015-May-22 05:33N 52°28' E 004°35'0 0.0
2015-May-22 04:33N 52°28' E 004°35'0 0.0
2015-May-22 03:33N 52°28' E 004°35'0 0.0
2015-May-22 02:33N 52°28' E 004°35'0 0.0
2015-May-22 01:33N 52°28' E 004°35'0 0.0
2015-May-22 00:30N 52°28' E 004°35'0 0.0
2015-May-21 23:24N 52°28' E 004°35'0 0.0
2015-May-21 22:30N 52°28' E 004°35'0 0.0
2015-May-21 21:33N 52°28' E 004°35'0 0.0
2015-May-21 20:33N 52°28' E 004°35'0 0.3
2015-May-21 19:34N 52°28' E 004°35'6 6.1
2015-May-21 18:33N 52°29' E 004°25'7 6.6
2015-May-21 17:33N 52°30' E 004°14'8 8.1
2015-May-21 16:33N 52°30' E 004°01'8 7.7
2015-May-21 15:33N 52°30' E 003°48'4 4.0
2015-May-21 14:30N 52°30' E 003°41'0 0.4
2015-May-21 13:21N 52°30' E 003°41'6 7.1
2015-May-21 12:33N 52°34' E 003°48'1212.0
2015-May-21 11:32N 52°45' E 003°55'2511.6
2015-May-21 09:20N 53°07' E 004°17'910.7
2015-May-21 08:28N 53°15' E 004°26'1210.5
2015-May-21 07:18N 53°26' E 004°33'810.5
2015-May-21 06:30N 53°34' E 004°38'2711.3
2015-May-21 04:08N 53°60' E 004°50'711.7
2015-May-21 03:33N 54°06' E 004°53'1211.5
2015-May-21 02:30N 54°18' E 004°58'  
Track history (hours):
 
Tides and Currents Weather Stations Pressure Air Temp Water Temp Dewpoint Dewpoint Depression Visibility Wind Speed Wind Dir Waves Ship Positions

Trabzon

Last reported at 2015-May-24 10:32 UTC. Time now 2015-May-30 14:38 UTC.
Position N 49°53' W 003°16'.

Length 229 m; draft 7.4 m.

Type: Cargo ship. MMSI: 215679000.

Date/timePositionNaut miles runAvg speedWind from/ knotsBaromVisibWave heightAir tempDewpointWater temp
2015-May-24 10:32N 49°53' W 003°16'1411.0
2015-May-24 09:15N 49°58' W 002°56'2212.3
2015-May-24 07:29N 50°05' W 002°24'1314.1
2015-May-24 06:34N 50°08' W 002°04'3714.6
2015-May-24 04:04N 50°18' W 001°09'713.6
2015-May-24 03:33N 50°20' W 000°59'1212.3
2015-May-24 02:33N 50°23' W 000°40'1211.5
2015-May-24 01:33N 50°26' W 000°23'1111.2
2015-May-24 00:33N 50°30' W 000°06'1111.1
2015-May-23 23:32N 50°33' E 000°11'1111.6
2015-May-23 22:33N 50°36' E 000°28'1312.7
2015-May-23 21:33N 50°42' E 000°46'1413.8
2015-May-23 20:33N 50°51' E 001°03'1413.5
2015-May-23 19:33N 51°00' E 001°18'1212.4
2015-May-23 18:33N 51°08' E 001°34'1111.1
2015-May-23 17:33N 51°15' E 001°47'1111.1
2015-May-23 16:34N 51°25' E 001°57'1211.6
2015-May-23 15:33N 51°34' E 002°07'2713.0
2015-May-23 13:27N 51°54' E 002°37'1214.0
2015-May-23 12:33N 52°04' E 002°50'1614.1
2015-May-23 11:23N 52°17' E 003°07'2812.9
2015-May-23 09:12N 52°30' E 003°48'812.4
2015-May-23 08:33N 52°31' E 004°01'1212.2
2015-May-23 07:33N 52°30' E 004°21'9 8.9
2015-May-23 06:34N 52°28' E 004°35'0 0.1
2015-May-23 05:31N 52°28' E 004°35'0 0.0
2015-May-23 04:33N 52°28' E 004°35'0 0.0
2015-May-23 03:33N 52°28' E 004°35'0 0.0
2015-May-23 02:30N 52°28' E 004°35'0 0.0
2015-May-23 01:33N 52°28' E 004°35'0 0.0
2015-May-23 00:33N 52°28' E 004°35'0 0.0
2015-May-22 23:33N 52°28' E 004°35'0 0.0
2015-May-22 22:33N 52°28' E 004°35'0 0.0
2015-May-22 21:33N 52°28' E 004°35'0 0.0
2015-May-22 20:33N 52°28' E 004°35'0 0.0
2015-May-22 19:33N 52°28' E 004°35'0 0.0
2015-May-22 18:33N 52°28' E 004°35'0 0.0
2015-May-22 17:27N 52°28' E 004°35'0 0.0
2015-May-22 16:33N 52°28' E 004°35'0 0.0
2015-May-22 15:30N 52°28' E 004°35'0 0.0
2015-May-22 14:30N 52°28' E 004°35'0 0.0
2015-May-22 13:33N 52°28' E 004°35'0 0.0
2015-May-22 12:30N 52°28' E 004°35'0 0.0
2015-May-22 11:33N 52°28' E 004°35'0 0.0
2015-May-22 10:30N 52°28' E 004°35'0 0.0
2015-May-22 09:30N 52°28' E 004°35'0 0.0
2015-May-22 08:33N 52°28' E 004°35'0 0.0
2015-May-22 07:33N 52°28' E 004°35'0 0.0
2015-May-22 06:33N 52°28' E 004°35'0 0.0
2015-May-22 05:33N 52°28' E 004°35'0 0.0
2015-May-22 04:33N 52°28' E 004°35'0 0.0
2015-May-22 03:33N 52°28' E 004°35'0 0.0
2015-May-22 02:33N 52°28' E 004°35'0 0.0
2015-May-22 01:33N 52°28' E 004°35'0 0.0
2015-May-22 00:30N 52°28' E 004°35'0 0.0
2015-May-21 23:24N 52°28' E 004°35'0 0.0
2015-May-21 22:30N 52°28' E 004°35'0 0.0
2015-May-21 21:33N 52°28' E 004°35'0 0.0
2015-May-21 20:33N 52°28' E 004°35'0 0.3
2015-May-21 19:34N 52°28' E 004°35'6 6.1
2015-May-21 18:33N 52°29' E 004°25'7 6.6
2015-May-21 17:33N 52°30' E 004°14'8 8.1
2015-May-21 16:33N 52°30' E 004°01'8 7.7
2015-May-21 15:33N 52°30' E 003°48'4 4.0
2015-May-21 14:30N 52°30' E 003°41'0 0.4
2015-May-21 13:21N 52°30' E 003°41'6 7.1
2015-May-21 12:33N 52°34' E 003°48'1212.0
2015-May-21 11:32N 52°45' E 003°55'2511.6
2015-May-21 09:20N 53°07' E 004°17'910.7
2015-May-21 08:28N 53°15' E 004°26'1210.5
2015-May-21 07:18N 53°26' E 004°33'810.5
2015-May-21 06:30N 53°34' E 004°38'2711.3
2015-May-21 04:08N 53°60' E 004°50'711.7
2015-May-21 03:33N 54°06' E 004°53'1211.5
2015-May-21 02:30N 54°18' E 004°58'  

Dump ship's entire track history